Logo AVAMET
Benvolgut visitant, si us plau, ingressa Recuperar contrasenya

Ibi Torretes/Font Roja

Dades diàries. Acumulats / Últims 30 dies disponibles

Data Temperatura (°C) Humitat rel. (%) Pressió rel. (hPa) Vent (km/h) Precipitació
Mínima Mitjana Màxima Amplitud
tèrmica
Mínima Mitjana Màxima Mínima Mitjana Màxima Predom. Mitjana Ràfega
màxima
Total
(mm)
Índex-n
Mínima Mitjana Màxima Mínima Mitjana Màxima n
0 a 1
P0 max
mm 5'
Dades mensuals acumulades fins l'últim dia disponible
05/2019 4,4 12,7 26,6 17,1 16,9 21,1 26,8 22,4 26 52 94 998 1.011 1.022   3,6 45,1 4,2
Dades anuals acumulades fins l'últim dia disponible
2019 -2,5 6,1 26,6 10,6 6,2 15,8 26,8 29,3 9 55 96 992 1.017 1.034   5,0 62,8 205,6
Últims 30 dies disponibles
23-05-2019 13,1     17,9     24,9 11,8 26 39 56 1.013 1.015 1.017 NW 2,1 22,5 0,0
22-05-2019 10,1     16,8     21,9 11,8 34 49 75 1.013 1.015 1.017 NW 1,8 22,5 0,0
21-05-2019 9,7     15,8     20,6 10,9 30 46 83 1.009 1.013 1.016 SSW 3,2 24,1 2,4
20-05-2019 8,7     14,4     20,6 11,9 28 52 72 1.009 1.010 1.012 SSW 3,1 22,5 0,0
19-05-2019 9,7     14,8     18,2 8,5 26 46 77 1.006 1.007 1.011 S 4,2 33,8 0,0
18-05-2019 12,9     14,7     17,2 4,3 28 47 59 1.004 1.005 1.008 S 2,4 20,9 0,0
17-05-2019 10,3     14,1     16,9 6,6 36 46 61 998 1.003 1.008 S 10,1 45,1 0,0
16-05-2019 17,4     20,6     21,4 4,0 50 54 56 1.003 1.008 1.011 S 1,6 16,1 0,0
15-05-2019 26,6     26,7     26,8 0,2 26 26 26 1.004 1.009 1.013 NE 1,1 24,1 0,0
14-05-2019 17,9     19,1     19,9 2,0 37 39 45 1.012 1.015 1.018 SSW 2,4 22,5 0,0
13-05-2019 17,2     18,9     21,0 3,8 46 52 60 1.014 1.016 1.019 SSW 1,6 16,1 0,0
12-05-2019 15,8     19,8     21,7 5,9 47 52 56 1.016 1.019 1.022 SSW 2,9 22,5 0,0
11-05-2019 18,6     22,3     23,8 5,2 51 52 57 1.011 1.014 1.020 NE 1,8 14,5 0,0
10-05-2019 14,4     23,7     26,1 11,7 30 46 81 1.008 1.011 1.015 S 4,0 29,0 0,0
09-05-2019 13,8     16,9     22,6 8,8 45 65 76 1.009 1.011 1.013 S 10,6 33,8 0,0
08-05-2019 16,7     20,2     23,2 6,5 33 48 62 1.007 1.009 1.012 SSW 7,6 38,6 0,0
07-05-2019 12,6     19,2     23,7 11,1 32 54 76 1.011 1.013 1.016 SSW 2,3 22,5 0,0
06-05-2019 9,7     14,8     21,3 11,6 43 64 86 1.014 1.015 1.016 SSW 3,9 22,5 0,0
05-05-2019 8,9     13,3     18,2 9,3 36 59 90 1.009 1.012 1.014 SSW 3,7 24,1 0,0
04-05-2019 4,4     10,3     17,9 13,5 41 73 94 1.009 1.011 1.012 SSW 3,2 24,1 0,0
03-05-2019 6,6     11,7     18,2 11,6 35 63 94 1.006 1.009 1.012 NE 3,5 17,7 1,8
02-05-2019 10,1     14,0     19,4 9,3 41 66 91 1.010 1.011 1.013 NE 3,9 22,5 0,0
01-05-2019 7,2     13,6     19,7 12,5 41 60 92 1.010 1.012 1.014 NE 1,9 25,7 0,0
30-04-2019 7,6     12,9     19,4 11,8 56 80 96 1.013 1.014 1.015 OSO 2,4 20,9 0,0
29-04-2019 9,8     13,5     19,3 9,5 47 66 93 1.014 1.016 1.018 SSW 2,7 22,5 0,0
28-04-2019 9,6     14,5     20,2 10,6 36 52 75 1.017 1.020 1.023 NE 2,7 20,9 0,0
27-04-2019 8,4     13,6     18,8 10,4 37 54 79 1.021 1.023 1.025 NE 3,5 20,9 0,0
26-04-2019 5,9     11,3     17,7 11,8 28 55 77 1.017 1.020 1.024 S 5,8 41,8 0,0
25-04-2019 9,3     12,2     15,7 6,4 47 65 82 1.008 1.010 1.017 WSW 7,2 35,4 0,0
24-04-2019 2,7     8,9     14,2 11,5 47 67 83 1.002 1.008 1.011 SSW 5,8 32,2 0,0
Últims 13 mesos disponibles
04/2019 2,7 6,8 10,4 10,7 9,1 15,7 23,3 20,6 36 68 95 998 1.011 1.023 NE 5,8 48,3 174,4
03/2019 1,9 6,0 11,2 10,8 8,6 16,2 23,3 21,4 21 51 87 1.009 1.020 1.028 NE 5,8 45,1 21,2
02/2019 -2,0 3,7 9,7 8,9 6,8 15,2 22,5 24,5 23 51 77 994 1.023 1.031 NE 4,6 62,8 5,0
01/2019 -2,5 2,8 6,7 7,1 6,2 12,3 17,5 20,0 27 54 79 1.002 1.017 1.029 NNE 5,0 61,2 0,8
12/2018 2,6 5,9 12,7 10,4 9,1 15,7 23,3 20,7 28 56 87 1.008 1.023 1.030 NNE 3,5 59,5 29,6
11/2018 3,4 6,9 11,4 10,1 9,1 14,1 20,2 16,8 20 70 92 998 1.013 1.020 NE 5,0 51,5 49,0
10/2018 1,8 10,5 14,4 14,4 8,7 19,6 25,6 23,8 39 68 85 997 1.011 1.021 NE 4,1 53,1 55,8
09/2018 11,8 16,0 19,1 20,2 18,7 25,8 30,8 19,0 43 68 90 1.009 1.016 1.025 3,6 35,4 29,8
08/2018 14,2 17,6 21,4 22,2 21,3 28,0 31,6 17,4 44 63 74 1.013 1.014 1.015 2,8 32,2 29,4
07/2018 15,6 18,4 21,2 24,4 25,5 29,6 32,9 17,3 3,8 37,0 0,0
06/2018 9,7 14,6 18,1 19,5 18,7 25,1 29,7 20,0 3,3 38,6 41,4
05/2018 4,1 10,0 13,0 14,5 13,3 19,9 24,3 20,2 4,3 51,5 17,4
04/2018 2,2 7,8 12,7 12,0 6,3 17,0 24,1 21,9 7,3 59,5 24,6
Tots els anys disponibles
2018 -2,4 9,5 21,4 13,7 2,6 18,8 32,9 35,3 20 65 92 997 1.016 1.030 NE 4,7 77,2 420,0
2017 -5,0 10,4 24,6 14,9 0,7 20,4 37,4 42,4 4,7 77,2 358,0
2016 -2,0 10,4 24,5 14,6 4,6 19,7 37,2 39,2 5,0 67,6 454,8
2015 -0,8 12,4 25,2 16,8 7,0 22,2 36,4 37,2 NE 4,3 51,5 274,4
Temperatura (°C)
Humitat relativa (%)
Pressió (hPa)
Precipitació (mm)
Nota sobre les dades: s'avisa a l'usuari de la provisionalitat i no oficialitat d'aquestes dades
Logo AVAMET blanc
Web allotjada a Sollutia
Llicència de Creative CommonsLa web d'AVAMET i els seus continguts estan subjectes a una llicència de
Reconeixement - No Comercial - Compartir igual
Properes estacions: Altea - Club Nàutic d'Altea (Soci), Ontinyent - El Pilar (Soci), Ares del Maestrat (Ajuntament Soci), Catadau - L'Altet (Inforatge)     - - - - -      Últimes estacions: Jacarilla - centro (MeteOrihuela), Elx - Maitino/Vallverda/Velarde/Matola/Ferriol (Soci TiempoElche.com), Orihuela - Playa Flamenca (MeteOrihuela), Puçol - Ciutat Jardí (Soci), Alzira - La Casella (Soci) - - -